sensor_id;sensor_type;location;lat;lon;timestamp;P1;durP1;ratioP1;P2;durP2;ratioP2
78322;SDS011;67583;50.616;-3.404;2024-01-16T00:00:33;15.05;;;9.48;;
78322;SDS011;67583;50.616;-3.404;2024-01-16T00:02:59;16.73;;;9.65;;
78322;SDS011;67583;50.616;-3.404;2024-01-16T00:05:25;19.80;;;10.20;;
78322;SDS011;67583;50.616;-3.404;2024-01-16T00:07:50;21.77;;;10.48;;
78322;SDS011;67583;50.616;-3.404;2024-01-16T00:10:15;23.35;;;11.18;;
78322;SDS011;67583;50.616;-3.404;2024-01-16T00:12:41;21.23;;;11.85;;
78322;SDS011;67583;50.616;-3.404;2024-01-16T00:15:07;19.48;;;11.93;;
78322;SDS011;67583;50.616;-3.404;2024-01-16T00:17:34;18.75;;;10.55;;
78322;SDS011;67583;50.616;-3.404;2024-01-16T00:19:59;20.25;;;11.52;;
78322;SDS011;67583;50.616;-3.404;2024-01-16T00:22:26;17.88;;;10.40;;
78322;SDS011;67583;50.616;-3.404;2024-01-16T00:24:52;20.00;;;10.27;;
78322;SDS011;67583;50.616;-3.404;2024-01-16T00:27:17;17.90;;;9.80;;
78322;SDS011;67583;50.616;-3.404;2024-01-16T00:29:43;18.17;;;10.55;;
78322;SDS011;67583;50.616;-3.404;2024-01-16T00:32:08;19.10;;;10.10;;
78322;SDS011;67583;50.616;-3.404;2024-01-16T00:34:33;17.45;;;9.35;;
78322;SDS011;67583;50.616;-3.404;2024-01-16T00:36:59;22.77;;;10.20;;
78322;SDS011;67583;50.616;-3.404;2024-01-16T00:39:24;16.55;;;11.38;;
78322;SDS011;67583;50.616;-3.404;2024-01-16T00:41:50;17.42;;;9.10;;
78322;SDS011;67583;50.616;-3.404;2024-01-16T00:44:15;17.67;;;9.77;;
78322;SDS011;67583;50.616;-3.404;2024-01-16T00:46:41;16.67;;;9.90;;
78322;SDS011;67583;50.616;-3.404;2024-01-16T00:49:06;17.10;;;10.02;;
78322;SDS011;67583;50.616;-3.404;2024-01-16T00:51:32;12.90;;;8.45;;
78322;SDS011;67583;50.616;-3.404;2024-01-16T00:53:58;15.05;;;8.60;;
78322;SDS011;67583;50.616;-3.404;2024-01-16T00:56:23;16.20;;;8.68;;
78322;SDS011;67583;50.616;-3.404;2024-01-16T00:58:51;16.23;;;8.77;;
78322;SDS011;67583;50.616;-3.404;2024-01-16T01:01:18;14.98;;;7.80;;
78322;SDS011;67583;50.616;-3.404;2024-01-16T01:03:44;12.95;;;7.60;;
78322;SDS011;67583;50.616;-3.404;2024-01-16T01:06:09;14.93;;;7.43;;
78322;SDS011;67583;50.616;-3.404;2024-01-16T01:08:35;14.63;;;7.63;;
78322;SDS011;67583;50.616;-3.404;2024-01-16T01:11:00;11.10;;;6.75;;
78322;SDS011;67583;50.616;-3.404;2024-01-16T01:13:26;15.10;;;7.97;;
78322;SDS011;67583;50.616;-3.404;2024-01-16T01:15:51;16.80;;;9.00;;
78322;SDS011;67583;50.616;-3.404;2024-01-16T01:18:17;14.82;;;8.85;;
78322;SDS011;67583;50.616;-3.404;2024-01-16T01:20:42;14.90;;;8.82;;
78322;SDS011;67583;50.616;-3.404;2024-01-16T01:23:07;13.90;;;8.18;;
78322;SDS011;67583;50.616;-3.404;2024-01-16T01:25:33;15.15;;;8.40;;
78322;SDS011;67583;50.616;-3.404;2024-01-16T01:27:58;14.15;;;9.02;;
78322;SDS011;67583;50.616;-3.404;2024-01-16T01:30:24;14.20;;;8.48;;
78322;SDS011;67583;50.616;-3.404;2024-01-16T01:32:49;14.38;;;8.45;;
78322;SDS011;67583;50.616;-3.404;2024-01-16T01:35:16;11.82;;;7.32;;
78322;SDS011;67583;50.616;-3.404;2024-01-16T01:37:42;15.35;;;8.55;;
78322;SDS011;67583;50.616;-3.404;2024-01-16T01:40:07;14.60;;;9.10;;
78322;SDS011;67583;50.616;-3.404;2024-01-16T01:42:33;14.45;;;9.20;;
78322;SDS011;67583;50.616;-3.404;2024-01-16T01:44:59;14.68;;;9.18;;
78322;SDS011;67583;50.616;-3.404;2024-01-16T01:47:24;17.63;;;9.30;;
78322;SDS011;67583;50.616;-3.404;2024-01-16T01:49:50;13.77;;;8.73;;
78322;SDS011;67583;50.616;-3.404;2024-01-16T01:54:41;17.50;;;8.77;;
78322;SDS011;67583;50.616;-3.404;2024-01-16T01:57:07;14.10;;;9.73;;
78322;SDS011;67583;50.616;-3.404;2024-01-16T01:59:33;22.08;;;9.15;;
78322;SDS011;67583;50.616;-3.404;2024-01-16T02:01:58;19.33;;;8.50;;
78322;SDS011;67583;50.616;-3.404;2024-01-16T02:04:24;10.02;;;6.93;;
78322;SDS011;67583;50.616;-3.404;2024-01-16T02:06:51;16.15;;;7.97;;
78322;SDS011;67583;50.616;-3.404;2024-01-16T02:09:17;13.18;;;7.78;;
78322;SDS011;67583;50.616;-3.404;2024-01-16T02:11:42;13.35;;;6.93;;
78322;SDS011;67583;50.616;-3.404;2024-01-16T02:14:08;13.50;;;8.15;;
78322;SDS011;67583;50.616;-3.404;2024-01-16T02:16:38;11.75;;;7.30;;
78322;SDS011;67583;50.616;-3.404;2024-01-16T02:19:05;13.30;;;7.75;;
78322;SDS011;67583;50.616;-3.404;2024-01-16T02:21:33;13.80;;;7.43;;
78322;SDS011;67583;50.616;-3.404;2024-01-16T02:24:05;11.20;;;7.50;;
78322;SDS011;67583;50.616;-3.404;2024-01-16T02:26:31;12.90;;;7.45;;
78322;SDS011;67583;50.616;-3.404;2024-01-16T02:28:57;10.88;;;7.13;;
78322;SDS011;67583;50.616;-3.404;2024-01-16T02:31:22;11.30;;;6.15;;
78322;SDS011;67583;50.616;-3.404;2024-01-16T02:33:49;10.70;;;6.03;;
78322;SDS011;67583;50.616;-3.404;2024-01-16T02:36:14;9.40;;;6.15;;
78322;SDS011;67583;50.616;-3.404;2024-01-16T02:38:39;10.88;;;6.63;;
78322;SDS011;67583;50.616;-3.404;2024-01-16T02:41:07;11.35;;;7.18;;
78322;SDS011;67583;50.616;-3.404;2024-01-16T02:43:32;17.13;;;8.50;;
78322;SDS011;67583;50.616;-3.404;2024-01-16T02:45:58;14.05;;;8.10;;
78322;SDS011;67583;50.616;-3.404;2024-01-16T02:48:23;15.85;;;8.35;;
78322;SDS011;67583;50.616;-3.404;2024-01-16T02:50:49;15.13;;;8.63;;
78322;SDS011;67583;50.616;-3.404;2024-01-16T02:53:14;16.02;;;7.70;;
78322;SDS011;67583;50.616;-3.404;2024-01-16T02:55:40;15.15;;;7.22;;
78322;SDS011;67583;50.616;-3.404;2024-01-16T02:58:05;16.88;;;7.88;;
78322;SDS011;67583;50.616;-3.404;2024-01-16T03:00:30;13.02;;;8.25;;
78322;SDS011;67583;50.616;-3.404;2024-01-16T03:02:56;15.35;;;8.10;;
78322;SDS011;67583;50.616;-3.404;2024-01-16T03:05:21;12.57;;;7.43;;
78322;SDS011;67583;50.616;-3.404;2024-01-16T03:07:47;13.18;;;7.88;;
78322;SDS011;67583;50.616;-3.404;2024-01-16T03:10:12;16.35;;;7.53;;
78322;SDS011;67583;50.616;-3.404;2024-01-16T03:12:37;13.55;;;7.72;;
78322;SDS011;67583;50.616;-3.404;2024-01-16T03:15:03;19.83;;;8.25;;
78322;SDS011;67583;50.616;-3.404;2024-01-16T03:17:29;12.55;;;7.80;;
78322;SDS011;67583;50.616;-3.404;2024-01-16T03:19:54;12.90;;;7.55;;
78322;SDS011;67583;50.616;-3.404;2024-01-16T03:22:19;16.02;;;8.48;;
78322;SDS011;67583;50.616;-3.404;2024-01-16T03:24:45;11.15;;;7.25;;
78322;SDS011;67583;50.616;-3.404;2024-01-16T03:27:11;13.13;;;8.15;;
78322;SDS011;67583;50.616;-3.404;2024-01-16T03:29:36;11.75;;;7.57;;
78322;SDS011;67583;50.616;-3.404;2024-01-16T03:32:02;16.60;;;9.15;;
78322;SDS011;67583;50.616;-3.404;2024-01-16T03:34:28;14.80;;;8.10;;
78322;SDS011;67583;50.616;-3.404;2024-01-16T03:36:55;13.45;;;7.45;;
78322;SDS011;67583;50.616;-3.404;2024-01-16T03:39:20;13.98;;;7.88;;
78322;SDS011;67583;50.616;-3.404;2024-01-16T03:41:47;15.98;;;8.80;;
78322;SDS011;67583;50.616;-3.404;2024-01-16T03:44:13;12.05;;;7.18;;
78322;SDS011;67583;50.616;-3.404;2024-01-16T03:46:38;13.50;;;7.68;;
78322;SDS011;67583;50.616;-3.404;2024-01-16T03:49:03;14.35;;;8.45;;
78322;SDS011;67583;50.616;-3.404;2024-01-16T03:51:29;12.43;;;7.15;;
78322;SDS011;67583;50.616;-3.404;2024-01-16T03:53:54;13.57;;;7.72;;
78322;SDS011;67583;50.616;-3.404;2024-01-16T03:56:20;15.23;;;7.85;;
78322;SDS011;67583;50.616;-3.404;2024-01-16T03:58:45;17.98;;;7.75;;
78322;SDS011;67583;50.616;-3.404;2024-01-16T04:01:10;13.80;;;8.23;;
78322;SDS011;67583;50.616;-3.404;2024-01-16T04:03:38;19.00;;;8.52;;
78322;SDS011;67583;50.616;-3.404;2024-01-16T04:06:13;16.98;;;8.85;;
78322;SDS011;67583;50.616;-3.404;2024-01-16T04:08:40;14.02;;;7.97;;
78322;SDS011;67583;50.616;-3.404;2024-01-16T04:11:10;15.63;;;8.15;;
78322;SDS011;67583;50.616;-3.404;2024-01-16T04:13:36;13.95;;;8.30;;
78322;SDS011;67583;50.616;-3.404;2024-01-16T04:16:02;14.20;;;8.55;;
78322;SDS011;67583;50.616;-3.404;2024-01-16T04:18:27;14.93;;;8.20;;
78322;SDS011;67583;50.616;-3.404;2024-01-16T04:20:53;16.13;;;8.48;;
78322;SDS011;67583;50.616;-3.404;2024-01-16T04:23:18;17.55;;;8.57;;
78322;SDS011;67583;50.616;-3.404;2024-01-16T04:25:43;13.00;;;8.38;;
78322;SDS011;67583;50.616;-3.404;2024-01-16T04:28:09;16.95;;;9.20;;
78322;SDS011;67583;50.616;-3.404;2024-01-16T04:30:35;14.18;;;8.40;;
78322;SDS011;67583;50.616;-3.404;2024-01-16T04:33:00;18.10;;;9.30;;
78322;SDS011;67583;50.616;-3.404;2024-01-16T04:35:26;16.70;;;8.90;;
78322;SDS011;67583;50.616;-3.404;2024-01-16T04:37:51;19.48;;;9.73;;
78322;SDS011;67583;50.616;-3.404;2024-01-16T04:40:17;16.83;;;9.35;;
78322;SDS011;67583;50.616;-3.404;2024-01-16T04:42:42;20.17;;;10.13;;
78322;SDS011;67583;50.616;-3.404;2024-01-16T04:45:08;19.63;;;9.80;;
78322;SDS011;67583;50.616;-3.404;2024-01-16T04:47:34;19.02;;;9.77;;
78322;SDS011;67583;50.616;-3.404;2024-01-16T04:49:59;19.65;;;10.02;;
78322;SDS011;67583;50.616;-3.404;2024-01-16T04:52:25;16.65;;;8.95;;
78322;SDS011;67583;50.616;-3.404;2024-01-16T04:54:50;15.23;;;9.43;;
78322;SDS011;67583;50.616;-3.404;2024-01-16T04:57:15;19.25;;;10.07;;
78322;SDS011;67583;50.616;-3.404;2024-01-16T04:59:41;16.92;;;11.07;;
78322;SDS011;67583;50.616;-3.404;2024-01-16T05:02:06;20.85;;;11.15;;
78322;SDS011;67583;50.616;-3.404;2024-01-16T05:04:32;21.15;;;11.18;;
78322;SDS011;67583;50.616;-3.404;2024-01-16T05:06:57;15.65;;;10.02;;
78322;SDS011;67583;50.616;-3.404;2024-01-16T05:09:22;19.55;;;10.50;;
78322;SDS011;67583;50.616;-3.404;2024-01-16T05:11:48;18.02;;;9.45;;
78322;SDS011;67583;50.616;-3.404;2024-01-16T05:14:14;16.77;;;9.32;;
78322;SDS011;67583;50.616;-3.404;2024-01-16T05:16:39;16.17;;;9.52;;
78322;SDS011;67583;50.616;-3.404;2024-01-16T05:19:05;18.02;;;8.80;;
78322;SDS011;67583;50.616;-3.404;2024-01-16T05:21:30;14.95;;;8.93;;
78322;SDS011;67583;50.616;-3.404;2024-01-16T05:23:56;16.38;;;9.18;;
78322;SDS011;67583;50.616;-3.404;2024-01-16T05:26:21;16.30;;;8.18;;
78322;SDS011;67583;50.616;-3.404;2024-01-16T05:28:47;12.07;;;6.88;;
78322;SDS011;67583;50.616;-3.404;2024-01-16T05:31:12;11.80;;;6.85;;
78322;SDS011;67583;50.616;-3.404;2024-01-16T05:33:38;11.48;;;6.72;;
78322;SDS011;67583;50.616;-3.404;2024-01-16T05:36:03;12.90;;;7.22;;
78322;SDS011;67583;50.616;-3.404;2024-01-16T05:38:29;14.45;;;7.07;;
78322;SDS011;67583;50.616;-3.404;2024-01-16T05:40:55;12.32;;;6.85;;
78322;SDS011;67583;50.616;-3.404;2024-01-16T05:43:20;13.10;;;6.93;;
78322;SDS011;67583;50.616;-3.404;2024-01-16T05:45:45;11.18;;;6.25;;
78322;SDS011;67583;50.616;-3.404;2024-01-16T05:48:11;13.70;;;6.63;;
78322;SDS011;67583;50.616;-3.404;2024-01-16T05:50:37;12.55;;;7.25;;
78322;SDS011;67583;50.616;-3.404;2024-01-16T05:53:02;10.68;;;5.80;;
78322;SDS011;67583;50.616;-3.404;2024-01-16T05:55:28;12.38;;;6.25;;
78322;SDS011;67583;50.616;-3.404;2024-01-16T05:57:57;15.40;;;6.57;;
78322;SDS011;67583;50.616;-3.404;2024-01-16T06:00:23;9.95;;;6.05;;
78322;SDS011;67583;50.616;-3.404;2024-01-16T06:02:48;13.73;;;6.22;;
78322;SDS011;67583;50.616;-3.404;2024-01-16T06:05:14;13.77;;;7.45;;
78322;SDS011;67583;50.616;-3.404;2024-01-16T06:07:39;11.15;;;5.57;;
78322;SDS011;67583;50.616;-3.404;2024-01-16T06:10:05;12.73;;;6.85;;
78322;SDS011;67583;50.616;-3.404;2024-01-16T06:12:31;9.90;;;5.82;;
78322;SDS011;67583;50.616;-3.404;2024-01-16T06:14:56;9.13;;;5.07;;
78322;SDS011;67583;50.616;-3.404;2024-01-16T06:19:48;9.77;;;4.78;;
78322;SDS011;67583;50.616;-3.404;2024-01-16T06:22:13;9.75;;;4.53;;
78322;SDS011;67583;50.616;-3.404;2024-01-16T06:24:39;7.30;;;4.57;;
78322;SDS011;67583;50.616;-3.404;2024-01-16T06:27:04;8.55;;;4.60;;
78322;SDS011;67583;50.616;-3.404;2024-01-16T06:29:31;8.30;;;4.18;;
78322;SDS011;67583;50.616;-3.404;2024-01-16T06:31:56;6.35;;;4.55;;
78322;SDS011;67583;50.616;-3.404;2024-01-16T06:34:22;8.65;;;4.18;;
78322;SDS011;67583;50.616;-3.404;2024-01-16T06:36:47;8.18;;;4.55;;
78322;SDS011;67583;50.616;-3.404;2024-01-16T06:39:13;11.45;;;5.22;;
78322;SDS011;67583;50.616;-3.404;2024-01-16T06:41:40;5.63;;;3.83;;
78322;SDS011;67583;50.616;-3.404;2024-01-16T06:44:06;10.93;;;4.43;;
78322;SDS011;67583;50.616;-3.404;2024-01-16T06:46:31;9.10;;;4.78;;
78322;SDS011;67583;50.616;-3.404;2024-01-16T06:48:57;10.68;;;5.45;;
78322;SDS011;67583;50.616;-3.404;2024-01-16T06:51:22;12.60;;;5.38;;
78322;SDS011;67583;50.616;-3.404;2024-01-16T06:53:48;10.40;;;5.78;;
78322;SDS011;67583;50.616;-3.404;2024-01-16T06:56:13;6.78;;;4.32;;
78322;SDS011;67583;50.616;-3.404;2024-01-16T06:58:38;15.43;;;6.38;;
78322;SDS011;67583;50.616;-3.404;2024-01-16T07:01:04;7.72;;;4.07;;
78322;SDS011;67583;50.616;-3.404;2024-01-16T07:03:29;10.43;;;4.32;;
78322;SDS011;67583;50.616;-3.404;2024-01-16T07:05:55;8.13;;;4.35;;
78322;SDS011;67583;50.616;-3.404;2024-01-16T07:08:20;8.00;;;4.13;;
78322;SDS011;67583;50.616;-3.404;2024-01-16T07:10:46;7.28;;;3.85;;
78322;SDS011;67583;50.616;-3.404;2024-01-16T07:13:11;8.68;;;4.07;;
78322;SDS011;67583;50.616;-3.404;2024-01-16T07:15:37;8.02;;;4.25;;
78322;SDS011;67583;50.616;-3.404;2024-01-16T07:18:02;7.25;;;4.22;;
78322;SDS011;67583;50.616;-3.404;2024-01-16T07:20:28;7.63;;;3.95;;
78322;SDS011;67583;50.616;-3.404;2024-01-16T07:22:53;5.57;;;3.60;;
78322;SDS011;67583;50.616;-3.404;2024-01-16T07:25:19;7.78;;;4.45;;
78322;SDS011;67583;50.616;-3.404;2024-01-16T07:27:44;5.90;;;4.13;;
78322;SDS011;67583;50.616;-3.404;2024-01-16T07:30:13;8.88;;;3.33;;
78322;SDS011;67583;50.616;-3.404;2024-01-16T07:32:39;5.13;;;3.15;;
78322;SDS011;67583;50.616;-3.404;2024-01-16T07:35:04;3.88;;;2.92;;
78322;SDS011;67583;50.616;-3.404;2024-01-16T07:37:30;4.45;;;3.00;;
78322;SDS011;67583;50.616;-3.404;2024-01-16T07:39:55;5.35;;;3.00;;
78322;SDS011;67583;50.616;-3.404;2024-01-16T07:42:21;4.65;;;2.72;;
78322;SDS011;67583;50.616;-3.404;2024-01-16T07:44:46;4.35;;;2.72;;
78322;SDS011;67583;50.616;-3.404;2024-01-16T07:47:12;5.38;;;3.20;;
78322;SDS011;67583;50.616;-3.404;2024-01-16T07:49:37;5.68;;;3.00;;
78322;SDS011;67583;50.616;-3.404;2024-01-16T07:52:03;6.95;;;3.40;;
78322;SDS011;67583;50.616;-3.404;2024-01-16T07:54:28;6.60;;;3.88;;
78322;SDS011;67583;50.616;-3.404;2024-01-16T07:56:54;8.88;;;4.00;;
78322;SDS011;67583;50.616;-3.404;2024-01-16T07:59:19;9.75;;;4.47;;
78322;SDS011;67583;50.616;-3.404;2024-01-16T08:01:45;8.32;;;4.53;;
78322;SDS011;67583;50.616;-3.404;2024-01-16T08:04:10;9.30;;;5.25;;
78322;SDS011;67583;50.616;-3.404;2024-01-16T08:06:36;14.23;;;5.70;;
78322;SDS011;67583;50.616;-3.404;2024-01-16T08:09:01;9.65;;;6.20;;
78322;SDS011;67583;50.616;-3.404;2024-01-16T08:11:27;13.93;;;6.97;;
78322;SDS011;67583;50.616;-3.404;2024-01-16T08:13:52;47.42;;;21.27;;
78322;SDS011;67583;50.616;-3.404;2024-01-16T08:16:18;43.55;;;21.35;;
78322;SDS011;67583;50.616;-3.404;2024-01-16T08:18:43;44.67;;;22.98;;
78322;SDS011;67583;50.616;-3.404;2024-01-16T08:21:09;34.03;;;19.27;;
78322;SDS011;67583;50.616;-3.404;2024-01-16T08:23:34;22.02;;;13.50;;
78322;SDS011;67583;50.616;-3.404;2024-01-16T08:26:00;17.70;;;10.05;;
78322;SDS011;67583;50.616;-3.404;2024-01-16T08:28:26;15.85;;;8.50;;
78322;SDS011;67583;50.616;-3.404;2024-01-16T08:30:52;16.90;;;10.10;;
78322;SDS011;67583;50.616;-3.404;2024-01-16T08:33:17;15.02;;;8.30;;
78322;SDS011;67583;50.616;-3.404;2024-01-16T08:35:43;15.63;;;7.85;;
78322;SDS011;67583;50.616;-3.404;2024-01-16T08:38:08;14.88;;;8.23;;
78322;SDS011;67583;50.616;-3.404;2024-01-16T08:40:34;17.70;;;7.47;;
78322;SDS011;67583;50.616;-3.404;2024-01-16T08:42:59;13.13;;;6.60;;
78322;SDS011;67583;50.616;-3.404;2024-01-16T08:45:24;14.80;;;7.65;;
78322;SDS011;67583;50.616;-3.404;2024-01-16T08:47:51;10.40;;;6.53;;
78322;SDS011;67583;50.616;-3.404;2024-01-16T08:50:16;15.55;;;7.82;;
78322;SDS011;67583;50.616;-3.404;2024-01-16T08:52:42;13.43;;;6.95;;
78322;SDS011;67583;50.616;-3.404;2024-01-16T08:55:08;12.27;;;7.47;;
78322;SDS011;67583;50.616;-3.404;2024-01-16T08:57:34;14.57;;;6.88;;
78322;SDS011;67583;50.616;-3.404;2024-01-16T09:00:00;11.07;;;7.22;;
78322;SDS011;67583;50.616;-3.404;2024-01-16T09:02:25;14.68;;;6.60;;
78322;SDS011;67583;50.616;-3.404;2024-01-16T09:04:54;12.98;;;6.80;;
78322;SDS011;67583;50.616;-3.404;2024-01-16T09:07:20;12.50;;;5.80;;
78322;SDS011;67583;50.616;-3.404;2024-01-16T09:09:45;13.48;;;6.20;;
78322;SDS011;67583;50.616;-3.404;2024-01-16T09:12:10;12.70;;;6.05;;
78322;SDS011;67583;50.616;-3.404;2024-01-16T09:14:36;10.63;;;5.15;;
78322;SDS011;67583;50.616;-3.404;2024-01-16T09:17:02;9.93;;;4.90;;
78322;SDS011;67583;50.616;-3.404;2024-01-16T09:19:28;8.73;;;4.78;;
78322;SDS011;67583;50.616;-3.404;2024-01-16T09:21:54;7.88;;;3.80;;
78322;SDS011;67583;50.616;-3.404;2024-01-16T09:24:20;8.30;;;4.70;;
78322;SDS011;67583;50.616;-3.404;2024-01-16T09:26:45;8.98;;;4.00;;
78322;SDS011;67583;50.616;-3.404;2024-01-16T09:29:11;9.27;;;4.22;;
78322;SDS011;67583;50.616;-3.404;2024-01-16T09:31:37;7.30;;;3.92;;
78322;SDS011;67583;50.616;-3.404;2024-01-16T09:34:03;10.85;;;4.25;;
78322;SDS011;67583;50.616;-3.404;2024-01-16T09:36:28;8.05;;;3.30;;
78322;SDS011;67583;50.616;-3.404;2024-01-16T09:38:54;5.47;;;3.47;;
78322;SDS011;67583;50.616;-3.404;2024-01-16T09:41:19;8.15;;;3.60;;
78322;SDS011;67583;50.616;-3.404;2024-01-16T09:43:45;8.63;;;3.30;;
78322;SDS011;67583;50.616;-3.404;2024-01-16T09:46:11;8.65;;;3.38;;
78322;SDS011;67583;50.616;-3.404;2024-01-16T09:48:37;6.07;;;3.38;;
78322;SDS011;67583;50.616;-3.404;2024-01-16T09:51:03;7.78;;;3.72;;
78322;SDS011;67583;50.616;-3.404;2024-01-16T09:53:28;5.93;;;3.20;;
78322;SDS011;67583;50.616;-3.404;2024-01-16T09:55:54;5.72;;;3.30;;
78322;SDS011;67583;50.616;-3.404;2024-01-16T09:58:25;4.63;;;2.75;;
78322;SDS011;67583;50.616;-3.404;2024-01-16T10:00:50;5.18;;;2.80;;
78322;SDS011;67583;50.616;-3.404;2024-01-16T10:03:16;4.25;;;2.25;;
78322;SDS011;67583;50.616;-3.404;2024-01-16T10:05:42;3.58;;;2.20;;
78322;SDS011;67583;50.616;-3.404;2024-01-16T10:08:09;4.03;;;1.83;;
78322;SDS011;67583;50.616;-3.404;2024-01-16T10:10:35;2.33;;;1.60;;
78322;SDS011;67583;50.616;-3.404;2024-01-16T10:13:00;3.08;;;1.30;;
78322;SDS011;67583;50.616;-3.404;2024-01-16T10:15:25;2.35;;;1.20;;
78322;SDS011;67583;50.616;-3.404;2024-01-16T10:17:52;2.67;;;1.13;;
78322;SDS011;67583;50.616;-3.404;2024-01-16T10:20:18;2.75;;;1.20;;
78322;SDS011;67583;50.616;-3.404;2024-01-16T10:22:57;2.58;;;1.40;;
78322;SDS011;67583;50.616;-3.404;2024-01-16T10:25:23;2.08;;;1.35;;
78322;SDS011;67583;50.616;-3.404;2024-01-16T10:27:49;2.55;;;1.20;;
78322;SDS011;67583;50.616;-3.404;2024-01-16T10:30:14;3.47;;;1.30;;
78322;SDS011;67583;50.616;-3.404;2024-01-16T10:32:40;2.45;;;0.77;;
78322;SDS011;67583;50.616;-3.404;2024-01-16T10:35:07;4.15;;;1.40;;
78322;SDS011;67583;50.616;-3.404;2024-01-16T10:40:22;9.60;;;5.20;;
78322;SDS011;67583;50.616;-3.404;2024-01-16T10:42:58;10.95;;;5.20;;
78322;SDS011;67583;50.616;-3.404;2024-01-16T10:45:24;11.73;;;5.95;;
78322;SDS011;67583;50.616;-3.404;2024-01-16T10:47:49;12.75;;;7.93;;
78322;SDS011;67583;50.616;-3.404;2024-01-16T10:50:29;12.10;;;6.57;;
78322;SDS011;67583;50.616;-3.404;2024-01-16T10:52:54;14.27;;;6.07;;
78322;SDS011;67583;50.616;-3.404;2024-01-16T10:55:23;9.43;;;5.57;;
78322;SDS011;67583;50.616;-3.404;2024-01-16T10:57:49;12.68;;;6.68;;
78322;SDS011;67583;50.616;-3.404;2024-01-16T11:00:19;14.90;;;7.20;;
78322;SDS011;67583;50.616;-3.404;2024-01-16T11:02:50;14.02;;;6.72;;
78322;SDS011;67583;50.616;-3.404;2024-01-16T11:05:18;11.02;;;6.72;;
78322;SDS011;67583;50.616;-3.404;2024-01-16T11:07:45;10.00;;;5.60;;
78322;SDS011;67583;50.616;-3.404;2024-01-16T11:10:12;10.70;;;6.05;;
78322;SDS011;67583;50.616;-3.404;2024-01-16T11:12:38;11.73;;;5.18;;
78322;SDS011;67583;50.616;-3.404;2024-01-16T11:15:05;6.07;;;3.83;;
78322;SDS011;67583;50.616;-3.404;2024-01-16T11:17:33;8.40;;;4.45;;
78322;SDS011;67583;50.616;-3.404;2024-01-16T11:19:59;11.07;;;4.00;;
78322;SDS011;67583;50.616;-3.404;2024-01-16T11:27:42;5.35;;;3.20;;
78322;SDS011;67583;50.616;-3.404;2024-01-16T11:30:10;4.93;;;2.95;;
78322;SDS011;67583;50.616;-3.404;2024-01-16T11:32:37;4.25;;;2.45;;
78322;SDS011;67583;50.616;-3.404;2024-01-16T11:35:05;10.13;;;4.95;;
78322;SDS011;67583;50.616;-3.404;2024-01-16T11:37:31;7.88;;;4.63;;
78322;SDS011;67583;50.616;-3.404;2024-01-16T11:42:42;6.50;;;4.57;;
78322;SDS011;67583;50.616;-3.404;2024-01-16T11:45:08;9.20;;;5.03;;
78322;SDS011;67583;50.616;-3.404;2024-01-16T11:48:12;13.07;;;5.10;;
78322;SDS011;67583;50.616;-3.404;2024-01-16T11:50:39;9.60;;;6.07;;
78322;SDS011;67583;50.616;-3.404;2024-01-16T11:55:34;9.85;;;4.72;;
78322;SDS011;67583;50.616;-3.404;2024-01-16T12:00:58;5.18;;;2.78;;
78322;SDS011;67583;50.616;-3.404;2024-01-16T12:03:24;3.35;;;1.60;;
78322;SDS011;67583;50.616;-3.404;2024-01-16T12:08:25;2.08;;;1.08;;
78322;SDS011;67583;50.616;-3.404;2024-01-16T12:13:16;1.10;;;1.00;;
78322;SDS011;67583;50.616;-3.404;2024-01-16T12:15:41;2.28;;;1.02;;
78322;SDS011;67583;50.616;-3.404;2024-01-16T12:18:07;2.88;;;1.25;;
78322;SDS011;67583;50.616;-3.404;2024-01-16T12:20:36;1.70;;;1.10;;
78322;SDS011;67583;50.616;-3.404;2024-01-16T12:23:06;3.65;;;1.40;;
78322;SDS011;67583;50.616;-3.404;2024-01-16T12:25:33;3.47;;;1.50;;
78322;SDS011;67583;50.616;-3.404;2024-01-16T12:28:03;3.33;;;1.30;;
78322;SDS011;67583;50.616;-3.404;2024-01-16T12:30:30;2.67;;;1.42;;
78322;SDS011;67583;50.616;-3.404;2024-01-16T12:35:35;1.83;;;1.20;;
78322;SDS011;67583;50.616;-3.404;2024-01-16T12:38:08;1.85;;;1.25;;
78322;SDS011;67583;50.616;-3.404;2024-01-16T12:40:35;3.70;;;1.38;;
78322;SDS011;67583;50.616;-3.404;2024-01-16T12:43:20;3.40;;;1.15;;
78322;SDS011;67583;50.616;-3.404;2024-01-16T12:45:54;1.58;;;1.20;;
78322;SDS011;67583;50.616;-3.404;2024-01-16T12:48:26;2.65;;;1.05;;
78322;SDS011;67583;50.616;-3.404;2024-01-16T12:50:59;4.78;;;1.30;;
78322;SDS011;67583;50.616;-3.404;2024-01-16T12:53:27;2.90;;;1.20;;
78322;SDS011;67583;50.616;-3.404;2024-01-16T12:58:32;2.15;;;1.35;;
78322;SDS011;67583;50.616;-3.404;2024-01-16T13:01:21;1.95;;;1.05;;
78322;SDS011;67583;50.616;-3.404;2024-01-16T13:03:50;2.50;;;1.30;;
78322;SDS011;67583;50.616;-3.404;2024-01-16T13:08:42;1.85;;;1.30;;
78322;SDS011;67583;50.616;-3.404;2024-01-16T13:13:34;1.60;;;1.10;;
78322;SDS011;67583;50.616;-3.404;2024-01-16T13:16:01;4.30;;;1.50;;
78322;SDS011;67583;50.616;-3.404;2024-01-16T13:18:28;3.15;;;1.33;;
78322;SDS011;67583;50.616;-3.404;2024-01-16T13:20:57;3.45;;;1.45;;
78322;SDS011;67583;50.616;-3.404;2024-01-16T13:23:24;2.53;;;1.42;;
78322;SDS011;67583;50.616;-3.404;2024-01-16T13:25:50;2.70;;;1.35;;
78322;SDS011;67583;50.616;-3.404;2024-01-16T13:30:42;2.10;;;1.30;;
78322;SDS011;67583;50.616;-3.404;2024-01-16T13:33:08;2.97;;;1.75;;
78322;SDS011;67583;50.616;-3.404;2024-01-16T13:38:01;2.15;;;1.08;;
78322;SDS011;67583;50.616;-3.404;2024-01-16T13:42:51;3.83;;;1.50;;
78322;SDS011;67583;50.616;-3.404;2024-01-16T13:45:17;1.40;;;1.08;;
78322;SDS011;67583;50.616;-3.404;2024-01-16T13:47:43;1.70;;;1.15;;
78322;SDS011;67583;50.616;-3.404;2024-01-16T13:52:34;2.63;;;1.10;;
78322;SDS011;67583;50.616;-3.404;2024-01-16T13:55:00;2.22;;;1.08;;
78322;SDS011;67583;50.616;-3.404;2024-01-16T13:57:30;5.32;;;1.48;;
78322;SDS011;67583;50.616;-3.404;2024-01-16T13:59:56;1.55;;;1.10;;
78322;SDS011;67583;50.616;-3.404;2024-01-16T14:04:47;3.97;;;1.10;;
78322;SDS011;67583;50.616;-3.404;2024-01-16T14:07:12;2.22;;;1.40;;
78322;SDS011;67583;50.616;-3.404;2024-01-16T14:09:38;2.42;;;1.20;;
78322;SDS011;67583;50.616;-3.404;2024-01-16T14:12:06;1.65;;;1.20;;
78322;SDS011;67583;50.616;-3.404;2024-01-16T14:14:33;1.95;;;1.05;;
78322;SDS011;67583;50.616;-3.404;2024-01-16T14:19:24;1.48;;;1.00;;
78322;SDS011;67583;50.616;-3.404;2024-01-16T14:21:51;1.92;;;1.65;;
78322;SDS011;67583;50.616;-3.404;2024-01-16T14:26:42;4.00;;;1.20;;
78322;SDS011;67583;50.616;-3.404;2024-01-16T14:29:09;1.08;;;0.88;;
78322;SDS011;67583;50.616;-3.404;2024-01-16T14:34:00;1.50;;;1.20;;
78322;SDS011;67583;50.616;-3.404;2024-01-16T14:36:25;1.45;;;1.00;;
78322;SDS011;67583;50.616;-3.404;2024-01-16T14:38:51;2.67;;;1.15;;
78322;SDS011;67583;50.616;-3.404;2024-01-16T14:41:16;2.13;;;1.15;;
78322;SDS011;67583;50.616;-3.404;2024-01-16T14:43:42;2.97;;;1.20;;
78322;SDS011;67583;50.616;-3.404;2024-01-16T14:48:35;2.28;;;1.00;;
78322;SDS011;67583;50.616;-3.404;2024-01-16T14:51:11;2.08;;;1.10;;
78322;SDS011;67583;50.616;-3.404;2024-01-16T14:56:03;3.30;;;1.27;;
78322;SDS011;67583;50.616;-3.404;2024-01-16T14:58:30;2.17;;;1.23;;
78322;SDS011;67583;50.616;-3.404;2024-01-16T15:03:21;1.45;;;1.23;;
78322;SDS011;67583;50.616;-3.404;2024-01-16T15:05:47;2.33;;;1.40;;
78322;SDS011;67583;50.616;-3.404;2024-01-16T15:08:15;1.65;;;1.30;;
78322;SDS011;67583;50.616;-3.404;2024-01-16T15:10:40;1.55;;;1.10;;
78322;SDS011;67583;50.616;-3.404;2024-01-16T15:13:06;1.40;;;1.20;;
78322;SDS011;67583;50.616;-3.404;2024-01-16T15:15:34;1.33;;;1.10;;
78322;SDS011;67583;50.616;-3.404;2024-01-16T15:17:59;1.77;;;0.95;;
78322;SDS011;67583;50.616;-3.404;2024-01-16T15:20:25;1.58;;;1.13;;
78322;SDS011;67583;50.616;-3.404;2024-01-16T15:22:50;2.05;;;1.35;;